Accueil
METAR-TAF:

METAR-TAF

Aéroports :

Aéroport international Chhatrapati-Shivaji

Bombay, Inde

latitude: 19-07N, longitude: 072-51E, altitude: 8 m

Observation

Le bulletin a été fait il y a 38 minutes, à 02:30 UTC
Vent calme
Température 28°C
Humidité 51%
Pression 1011 hPa
Visibilité: 2500 m
fumée

METAR: VABB 240230Z 00000KT 2500 FU NSC 28/17 Q1011 NOSIG

Heure: 08:38 (03:08 UTC)

Prévision

Le bulletin a été fait il y a 1 heure et 8 minutes, à 02:00 UTC
Prévision valable du 24 à 03 UTC au 24 à 12 UTC
Vent 4 kt de nord-est
Visibilité: 3000 m
brume sèche, fumée
Evoluant progressivement
du 24 à 04 UTC au 24 à 06 UTC
Vent 10 kt de ouest
Visibilité: 4000 m
fumée
Evoluant progressivement
du 24 à 08 UTC au 24 à 10 UTC
Visibilité: 5000 m
fumée

TAF: VABB 240200Z 2403/2412 04004KT 3000 HZ FU NSC BECMG 2404/2406 28010KT 4000 FU BECMG 2408/2410 5000 FU

Observations et prévisions météorologiques de plus de 4000 aéroports (messages METAR et TAF).

Les stations disponibles sont représentées par des disques jaunes et rouges sur la carte.

Passer la souris dessus pour voir le nom de la station.

Cliquer dessus pour voir les observations et prévisions météorologiques.

Pour changer de carte: cliquez sur les boutons verts avec une croix noire pour zoomer, sur le bouton vert avec un tiret pour effectuer un zoom arrière, ou sur les flèches vertes pour les cartes adjacentes.


METAR-TAF: